Time;durP1;ratioP1;P1;durP2;ratioP2;P2;SDS_P1;SDS_P2;PMS_P1;PMS_P2;Temp;Humidity;BMP_temperature;BMP_pressure;BME280_temperature;BME280_humidity;BME280_pressure;Samples;Min_cycle;Max_cycle;Signal;HPM_P1;HPM_P2
2021/07/07 00:01:15;;;;;;;19.75;7.68;;;;;;;17.32;48.67;99414.63;5078297;28;20040;-81
2021/07/07 00:03:41;;;;;;;13.40;6.60;;;;;;;17.30;48.94;99411.22;5096150;28;20424;-82
2021/07/07 00:06:07;;;;;;;14.52;5.78;;;;;;;17.34;48.65;99413.47;5061635;28;20055;-81
2021/07/07 00:08:33;;;;;;;21.42;5.57;;;;;;;17.33;48.71;99405.50;5061820;28;20048;-81
2021/07/07 00:11:00;;;;;;;10.18;4.10;;;;;;;17.31;48.52;99408.38;5078307;28;20051;-81
2021/07/07 00:13:26;;;;;;;8.63;3.90;;;;;;;17.32;48.20;99412.75;5061259;28;20681;-82
2021/07/07 00:15:52;;;;;;;11.60;3.67;;;;;;;17.39;48.56;99421.06;5061517;28;20517;-82
2021/07/07 00:18:18;;;;;;;9.45;3.45;;;;;;;17.33;48.43;99406.34;5045095;28;20439;-82
2021/07/07 00:20:56;;;;;;;7.55;2.80;;;;;;;17.32;48.21;99423.56;5061652;28;20044;-82
2021/07/07 00:23:23;;;;;;;5.78;2.97;;;;;;;17.31;48.27;99423.75;5063244;28;20044;-82
2021/07/07 00:25:49;;;;;;;9.80;3.53;;;;;;;17.29;48.48;99426.59;5061495;28;20043;-82
2021/07/07 00:28:15;;;;;;;7.40;2.97;;;;;;;17.33;48.53;99421.72;5061468;28;20040;-82
2021/07/07 00:30:41;;;;;;;12.45;3.17;;;;;;;17.39;48.32;99430.00;5061572;28;20055;-82
2021/07/07 00:33:16;;;;;;;9.73;3.60;;;;;;;17.42;48.47;99434.25;5046960;28;20578;-82
2021/07/07 00:35:42;;;;;;;9.63;4.88;;;;;;;17.44;48.50;99429.50;5077713;28;20039;-81
2021/07/07 00:38:08;;;;;;;11.82;5.28;;;;;;;17.48;48.36;99430.88;5060936;28;20048;-80
2021/07/07 00:40:35;;;;;;;11.93;5.03;;;;;;;17.44;48.09;99434.91;5060996;28;20044;-81
2021/07/07 00:43:01;;;;;;;8.07;4.40;;;;;;;17.41;47.93;99430.72;5044504;28;20085;-82
2021/07/07 00:45:27;;;;;;;12.13;3.90;;;;;;;17.44;47.83;99434.91;5060716;28;20051;-81
2021/07/07 00:47:53;;;;;;;11.95;4.80;;;;;;;17.45;47.59;99437.47;5095566;28;20119;-81
2021/07/07 00:50:19;;;;;;;9.40;3.60;;;;;;;17.47;47.42;99434.59;5077832;28;20052;-81
2021/07/07 00:52:45;;;;;;;10.48;3.95;;;;;;;17.39;47.54;99432.72;5060795;28;20052;-81
2021/07/07 00:55:13;;;;;;;7.35;3.70;;;;;;;17.42;47.60;99442.34;5060447;28;20044;-81
2021/07/07 00:57:42;;;;;;;9.73;3.17;;;;;;;17.40;47.28;99433.56;5043815;28;20043;-81
2021/07/07 01:00:16;;;;;;;11.13;3.28;;;;;;;17.27;47.82;99444.00;5095342;28;20592;-80
2021/07/07 01:02:43;;;;;;;13.05;3.28;;;;;;;17.27;47.97;99442.13;5061310;28;20051;-81
2021/07/07 01:05:10;;;;;;;6.80;3.33;;;;;;;17.28;48.13;99435.72;5076961;28;20056;-81
2021/07/07 01:07:36;;;;;;;8.48;3.30;;;;;;;17.27;48.36;99446.69;5061043;28;20089;-81
2021/07/07 01:10:04;;;;;;;13.15;3.28;;;;;;;17.24;48.15;99451.41;5095132;28;20044;-81
2021/07/07 01:12:31;;;;;;;6.10;3.05;;;;;;;17.22;48.30;99448.00;5060752;28;20130;-81
2021/07/07 01:14:59;;;;;;;8.75;2.83;;;;;;;17.18;48.54;99451.19;5073403;28;20068;-81
2021/07/07 01:17:25;;;;;;;6.50;3.13;;;;;;;17.15;48.60;99457.78;5057122;28;20483;-81
2021/07/07 01:19:51;;;;;;;7.15;2.78;;;;;;;17.18;48.56;99456.59;5057153;28;20064;-81
2021/07/07 01:22:17;;;;;;;8.35;2.90;;;;;;;17.21;48.55;99458.97;5073667;28;20507;-81
2021/07/07 01:24:43;;;;;;;9.35;2.90;;;;;;;17.21;48.96;99459.81;5057073;28;20032;-81
2021/07/07 01:27:10;;;;;;;8.25;3.00;;;;;;;17.28;48.37;99467.28;5074773;28;20044;-81
2021/07/07 01:29:36;;;;;;;3.90;2.85;;;;;;;17.32;48.74;99466.78;5073736;28;20055;-81
2021/07/07 01:32:02;;;;;;;5.55;3.17;;;;;;;17.33;48.21;99465.78;5056729;28;20110;-81
2021/07/07 01:34:29;;;;;;;9.30;3.60;;;;;;;17.35;48.34;99476.44;5040445;28;20044;-81
2021/07/07 01:36:55;;;;;;;13.98;3.85;;;;;;;17.36;48.55;99480.81;5074791;28;20517;-83
2021/07/07 01:39:21;;;;;;;6.93;3.10;;;;;;;17.34;48.23;99474.72;5056969;28;20086;-81
2021/07/07 01:41:47;;;;;;;11.20;3.72;;;;;;;17.39;48.12;99475.09;5023404;28;20105;-81
2021/07/07 01:44:12;;;;;;;9.73;3.30;;;;;;;17.48;48.04;99484.91;5072921;28;20123;-80
2021/07/07 01:46:39;;;;;;;7.35;2.97;;;;;;;17.50;47.94;99482.06;5073013;28;20427;-78
2021/07/07 01:49:05;;;;;;;8.07;2.95;;;;;;;17.61;47.89;99485.31;5039776;28;20045;-79
2021/07/07 01:51:31;;;;;;;6.15;2.67;;;;;;;17.61;47.41;99485.31;5056153;28;20544;-79
2021/07/07 01:53:57;;;;;;;6.18;2.63;;;;;;;17.70;47.25;99488.88;5073984;28;20074;-79
2021/07/07 01:56:23;;;;;;;12.45;3.15;;;;;;;17.63;47.23;99494.09;5074037;28;20495;-81
2021/07/07 01:58:49;;;;;;;10.80;2.70;;;;;;;17.70;47.07;99495.13;5056186;28;20044;-78
2021/07/07 02:01:15;;;;;;;4.60;3.25;;;;;;;17.70;47.19;99495.13;5072739;28;20044;-78
2021/07/07 02:03:41;;;;;;;6.60;2.50;;;;;;;17.63;47.22;99499.50;5072447;28;20041;-78
2021/07/07 02:06:07;;;;;;;8.50;3.00;;;;;;;17.61;47.26;99485.31;5074315;28;20460;-78
2021/07/07 02:08:33;;;;;;;10.35;3.10;;;;;;;17.60;47.55;99493.56;5073747;28;20036;-81
2021/07/07 02:11:00;;;;;;;11.57;2.65;;;;;;;17.59;47.78;99500.00;5056079;28;20127;-82
2021/07/07 02:13:26;;;;;;;10.65;2.67;;;;;;;17.75;47.47;99485.66;5072611;28;20131;-82
2021/07/07 02:15:52;;;;;;;11.10;3.28;;;;;;;17.88;47.33;99496.91;5072221;28;20526;-81
2021/07/07 02:18:18;;;;;;;7.50;2.90;;;;;;;17.96;46.74;99499.63;5073487;28;20497;-82
2021/07/07 02:20:46;;;;;;;9.23;3.35;;;;;;;18.06;46.42;99502.19;5072371;28;20114;-81
2021/07/07 02:23:12;;;;;;;15.60;3.67;;;;;;;18.16;45.72;99495.56;5056076;28;20040;-82
2021/07/07 02:25:43;;;;;;;6.70;3.10;;;;;;;18.15;45.66;99499.31;5072076;28;20692;-81
2021/07/07 02:28:10;;;;;;;12.88;3.65;;;;;;;18.32;45.46;99507.44;5039822;28;20117;-81
2021/07/07 02:30:36;;;;;;;9.73;3.35;;;;;;;18.45;44.94;99499.66;5055270;28;20036;-81
2021/07/07 02:33:02;;;;;;;10.63;3.72;;;;;;;18.41;44.99;99509.97;5072488;28;20579;-82
2021/07/07 02:35:31;;;;;;;8.13;3.63;;;;;;;18.57;44.29;99514.53;5055782;28;20087;-82
2021/07/07 02:37:57;;;;;;;;;;;;;;;18.72;44.13;99509.31;5055769;28;20101;-81
2021/07/07 02:40:24;;;;;;;13.05;3.20;;;;;;;18.82;43.71;99512.69;5055301;28;19916;-81
2021/07/07 02:42:52;;;;;;;9.13;2.92;;;;;;;18.78;43.24;99513.22;5055284;28;20055;-80
2021/07/07 02:45:18;;;;;;;12.38;2.72;;;;;;;18.72;43.32;99511.19;5071916;28;20131;-81
2021/07/07 02:47:44;;;;;;;11.02;2.47;;;;;;;18.81;43.25;99510.16;5038697;28;20044;-81
2021/07/07 02:50:11;;;;;;;9.35;2.65;;;;;;;18.79;43.29;99506.78;5071465;28;20051;-82
2021/07/07 02:52:38;;;;;;;13.95;3.08;;;;;;;18.92;42.74;99515.22;5071936;28;20040;-82
2021/07/07 02:55:05;;;;;;;10.20;2.78;;;;;;;18.93;43.00;99516.91;5071655;28;20388;-82
2021/07/07 02:57:55;;;;;;;11.90;3.17;;;;;;;19.03;42.81;99519.41;5053827;28;20048;-81
2021/07/07 03:00:17;;;;;;;8.27;2.80;;;;;;;19.03;42.91;99517.56;5057860;28;20466;-81
2021/07/07 03:02:43;;;;;;;6.15;2.80;;;;;;;19.03;42.39;99517.56;5071610;28;20066;-83
2021/07/07 03:05:09;;;;;;;11.70;3.10;;;;;;;19.14;42.33;99517.22;5055516;28;20143;-84
2021/07/07 03:07:35;;;;;;;5.70;2.80;;;;;;;19.30;42.07;99526.31;5073344;28;20037;-83
2021/07/07 03:10:08;;;;;;;5.50;2.65;;;;;;;19.34;41.65;99516.81;5055107;28;20046;-81
2021/07/07 03:12:36;;;;;;;8.30;2.70;;;;;;;19.40;42.01;99516.09;5024144;28;20063;-81
2021/07/07 03:15:03;;;;;;;14.93;3.13;;;;;;;19.48;41.81;99521.47;5071344;28;20068;-81
2021/07/07 03:17:29;;;;;;;15.43;3.00;;;;;;;19.41;41.77;99509.66;5054861;28;20055;-82
2021/07/07 03:19:55;;;;;;;12.00;2.33;;;;;;;19.52;41.36;99524.69;5038537;28;20044;-82
2021/07/07 03:22:21;;;;;;;10.63;2.47;;;;;;;19.41;41.41;99517.78;5054458;28;20522;-82
2021/07/07 03:24:47;;;;;;;12.57;2.20;;;;;;;19.42;41.22;99527.59;5054821;28;20040;-82
2021/07/07 03:27:13;;;;;;;12.25;2.83;;;;;;;19.46;40.99;99526.25;5071600;28;20032;-81
2021/07/07 03:29:39;;;;;;;12.20;2.45;;;;;;;19.40;41.30;99533.19;5038376;28;20411;-82
2021/07/07 03:32:05;;;;;;;8.65;2.80;;;;;;;19.48;40.74;99524.19;5054594;28;20097;-82
2021/07/07 03:34:31;;;;;;;12.45;3.25;;;;;;;19.48;40.98;99534.19;5071387;28;20036;-81
2021/07/07 03:36:57;;;;;;;16.23;2.55;;;;;;;19.57;41.08;99527.72;5054653;28;20507;-81
2021/07/07 03:39:23;;;;;;;7.30;2.50;;;;;;;19.69;40.78;99525.50;5071029;28;20091;-82
2021/07/07 03:41:49;;;;;;;12.95;2.67;;;;;;;19.71;40.34;99537.00;5054800;28;20041;-82
2021/07/07 03:44:15;;;;;;;15.40;3.95;;;;;;;19.77;40.81;99539.00;5021369;28;20036;-81
2021/07/07 03:46:41;;;;;;;5.72;2.88;;;;;;;19.83;40.22;99531.00;5071409;28;20063;-82
2021/07/07 03:49:07;;;;;;;17.23;2.80;;;;;;;19.90;40.28;99533.88;5054133;28;20483;-82
2021/07/07 03:51:33;;;;;;;6.43;2.65;;;;;;;19.89;40.05;99533.00;5054858;28;20082;-82
2021/07/07 03:54:01;;;;;;;12.57;3.17;;;;;;;19.83;39.84;99532.88;5071032;28;20049;-80
2021/07/07 03:56:27;;;;;;;15.15;3.95;;;;;;;19.96;39.97;99538.56;5038183;28;20043;-77
2021/07/07 03:58:53;;;;;;;18.67;2.97;;;;;;;20.02;40.01;99543.28;5072146;28;20048;-77
2021/07/07 04:01:19;;;;;;;11.13;3.08;;;;;;;20.06;39.85;99539.19;5070955;28;20120;-78
2021/07/07 04:03:45;;;;;;;5.68;2.40;;;;;;;20.14;39.84;99536.41;5074090;28;20040;-78
2021/07/07 04:06:10;;;;;;;5.47;2.90;;;;;;;20.15;39.87;99537.25;5081318;28;20083;-77
2021/07/07 04:08:38;;;;;;;16.08;3.58;;;;;;;20.22;39.97;99542.81;5072893;28;20048;-77
2021/07/07 04:11:04;;;;;;;14.70;3.13;;;;;;;20.21;39.67;99535.72;5054841;28;20131;-77
2021/07/07 04:13:30;;;;;;;16.10;3.13;;;;;;;20.22;39.36;99548.25;5071295;28;20455;-78
2021/07/07 04:15:56;;;;;;;19.05;3.85;;;;;;;20.22;40.23;99543.66;5050981;28;20480;-78
2021/07/07 04:18:22;;;;;;;16.40;3.42;;;;;;;20.26;40.23;99546.84;5051100;28;20083;-77
2021/07/07 04:20:48;;;;;;;18.75;3.60;;;;;;;20.45;39.66;99554.53;5050735;28;20083;-78
2021/07/07 04:23:14;;;;;;;26.95;4.07;;;;;;;20.40;39.71;99550.69;5051901;28;20048;-82
2021/07/07 04:25:40;;;;;;;14.57;3.72;;;;;;;20.37;39.34;99551.88;5018255;28;20072;-79
2021/07/07 04:28:07;;;;;;;11.43;2.75;;;;;;;20.52;39.20;99549.25;5052179;28;20041;-76
2021/07/07 04:30:33;;;;;;;13.60;3.60;;;;;;;20.59;39.29;99552.94;5034471;28;20123;-79
2021/07/07 04:32:59;;;;;;;12.80;2.97;;;;;;;20.63;39.81;99551.53;5052978;28;20049;-77
2021/07/07 04:35:25;;;;;;;11.95;2.80;;;;;;;20.57;39.73;99558.56;5055327;28;20044;-77
2021/07/07 04:37:51;;;;;;;16.13;2.90;;;;;;;20.54;39.84;99545.34;5054207;28;20056;-79
2021/07/07 04:40:18;;;;;;;26.27;3.17;;;;;;;20.60;39.81;99547.31;5054567;28;20084;-79
2021/07/07 04:42:44;;;;;;;11.13;2.53;;;;;;;20.69;40.08;99534.53;5054167;28;20040;-80
2021/07/07 04:45:10;;;;;;;16.63;2.97;;;;;;;20.94;39.62;99543.28;5055223;28;20537;-78
2021/07/07 04:47:37;;;;;;;10.55;2.78;;;;;;;20.97;39.16;99548.34;5055358;28;20045;-78
2021/07/07 04:50:08;;;;;;;20.35;3.55;;;;;;;20.97;39.44;99540.19;5070698;28;20052;-78
2021/07/07 04:52:34;;;;;;;25.33;3.92;;;;;;;21.23;39.54;99547.06;5053961;28;20036;-76
2021/07/07 04:55:00;;;;;;;7.20;3.00;;;;;;;;;;5055195;28;20560;-78
2021/07/07 04:57:26;;;;;;;13.18;3.47;;;;;;;21.41;38.69;99542.13;5037387;28;20041;-78
2021/07/07 04:59:51;;;;;;;21.67;3.47;;;;;;;21.52;38.93;99549.81;5037155;28;20067;-78
2021/07/07 05:02:17;;;;;;;11.23;3.35;;;;;;;21.69;39.06;99545.00;5037236;28;20091;-78
2021/07/07 05:04:44;;;;;;;15.85;3.00;;;;;;;21.82;38.30;99547.91;5053497;28;20068;-78
2021/07/07 05:07:10;;;;;;;19.85;2.58;;;;;;;21.81;37.87;99539.91;5053489;28;20139;-79
2021/07/07 05:09:36;;;;;;;14.00;2.65;;;;;;;21.82;37.83;99536.19;5037358;28;20470;-78
2021/07/07 05:12:02;;;;;;;10.60;3.00;;;;;;;21.79;37.98;99542.84;5070266;28;20091;-76
2021/07/07 05:14:28;;;;;;;3.92;2.38;;;;;;;21.66;37.50;99530.94;5060856;28;20060;-76
2021/07/07 05:16:54;;;;;;;11.35;2.30;;;;;;;21.61;37.44;99544.28;5074525;28;20414;-77
2021/07/07 05:19:20;;;;;;;7.70;2.30;;;;;;;21.66;37.81;99552.72;5074789;28;20052;-76
2021/07/07 05:21:46;;;;;;;9.93;2.47;;;;;;;21.83;38.12;99556.91;5040270;28;20086;-78
2021/07/07 05:24:12;;;;;;;33.13;4.35;;;;;;;21.86;37.68;99553.81;5056918;28;20075;-78
2021/07/07 05:26:38;;;;;;;13.05;2.65;;;;;;;21.78;37.38;99532.16;5074692;28;20048;-77
2021/07/07 05:29:04;;;;;;;10.60;3.38;;;;;;;21.94;37.72;99545.53;5056943;28;20052;-78
2021/07/07 05:31:31;;;;;;;17.25;3.17;;;;;;;21.98;37.27;99538.69;5059834;28;20514;-79
2021/07/07 05:33:56;;;;;;;9.88;3.17;;;;;;;22.16;37.02;99537.44;5056609;28;20414;-78
2021/07/07 05:36:22;;;;;;;9.73;2.70;;;;;;;22.38;36.11;99535.56;5056991;28;20577;-78
2021/07/07 05:38:48;;;;;;;12.00;2.30;;;;;;;22.34;36.04;99536.97;5073575;28;20131;-80
2021/07/07 05:41:14;;;;;;;7.47;2.63;;;;;;;22.24;35.90;99540.03;5056499;28;20048;-79
2021/07/07 05:43:40;;;;;;;12.80;2.47;;;;;;;22.36;35.80;99543.09;5073857;28;20048;-78
2021/07/07 05:46:06;;;;;;;19.30;2.78;;;;;;;22.63;35.95;99545.03;5056793;28;20488;-76
2021/07/07 05:48:32;;;;;;;22.60;3.70;;;;;;;23.04;34.62;99530.72;5074288;28;20056;-79
2021/07/07 05:50:58;;;;;;;8.18;2.25;;;;;;;23.13;33.08;99554.09;5073100;28;20046;-78
2021/07/07 05:53:24;;;;;;;16.58;2.50;;;;;;;22.85;33.21;99548.56;5074009;28;20503;-78
2021/07/07 05:55:50;;;;;;;6.97;2.55;;;;;;;22.77;33.43;99535.09;5073007;28;20050;-77
2021/07/07 05:58:16;;;;;;;15.27;4.15;;;;;;;23.08;33.76;99542.06;5089842;28;20512;-76
2021/07/07 06:00:42;;;;;;;20.40;4.43;;;;;;;23.31;32.88;99542.63;5073281;28;20040;-77
2021/07/07 06:03:10;;;;;;;13.95;2.17;;;;;;;23.44;32.54;99544.63;5071083;28;20044;-78
2021/07/07 06:05:35;;;;;;;7.15;1.92;;;;;;;23.66;31.49;99542.66;5055183;28;20137;-77
2021/07/07 06:08:02;;;;;;;3.53;1.67;;;;;;;23.88;31.20;99537.91;5072194;28;20506;-78
2021/07/07 06:10:28;;;;;;;3.10;1.92;;;;;;;23.55;31.52;99532.31;5073372;28;20032;-78
2021/07/07 06:12:54;;;;;;;2.25;1.60;;;;;;;23.24;31.93;99542.63;5073237;28;20089;-78
2021/07/07 06:15:21;;;;;;;2.78;1.80;;;;;;;23.10;32.11;99532.66;5088122;28;20048;-78
2021/07/07 06:17:47;;;;;;;5.03;1.83;;;;;;;23.35;31.73;99543.91;5093877;28;20040;-77
2021/07/07 06:20:15;;;;;;;7.22;1.90;;;;;;;23.45;31.71;99549.88;5093817;28;20062;-76
2021/07/07 06:22:41;;;;;;;7.25;1.90;;;;;;;23.59;31.47;99550.78;5094251;28;20406;-77
2021/07/07 06:25:07;;;;;;;3.47;1.83;;;;;;;23.83;30.92;99546.72;5059063;28;20043;-78
2021/07/07 06:27:37;;;;;;;35.17;3.70;;;;;;;23.71;30.90;99548.34;5059366;28;20040;-78
2021/07/07 06:30:04;;;;;;;10.23;2.78;;;;;;;24.28;30.73;99530.69;5060304;28;20039;-78
2021/07/07 06:32:30;;;;;;;5.80;1.88;;;;;;;24.08;30.30;99538.00;5075438;28;20394;-78
2021/07/07 06:35:00;;;;;;;11.40;2.05;;;;;;;24.26;30.50;99534.66;5059225;28;20109;-78
2021/07/07 06:37:26;;;;;;;9.38;2.60;;;;;;;23.96;30.65;99541.34;5043990;28;20050;-79
2021/07/07 06:39:52;;;;;;;2.80;1.50;;;;;;;23.86;30.93;99542.75;5058792;28;20052;-79
2021/07/07 06:42:18;;;;;;;5.30;1.80;;;;;;;24.20;30.75;99529.00;5075213;28;20074;-77
2021/07/07 06:44:44;;;;;;;7.53;1.98;;;;;;;24.46;29.64;99530.13;5075574;28;20113;-78
2021/07/07 06:47:11;;;;;;;6.07;1.83;;;;;;;24.15;30.12;99536.13;5058132;28;20044;-78
2021/07/07 06:49:37;;;;;;;6.45;1.90;;;;;;;24.08;30.16;99536.13;5075959;28;20043;-78
2021/07/07 06:52:04;;;;;;;11.60;2.25;;;;;;;23.94;30.24;99537.94;5093882;28;20039;-78
2021/07/07 06:54:30;;;;;;;14.50;2.20;;;;;;;23.81;30.43;99537.91;5075939;28;20044;-78
2021/07/07 06:56:56;;;;;;;16.73;2.35;;;;;;;23.88;30.27;99537.91;5074689;28;20467;-79
2021/07/07 06:59:22;;;;;;;9.73;2.38;;;;;;;24.06;30.40;99549.13;5093758;28;20059;-77
2021/07/07 07:01:47;;;;;;;6.68;2.30;;;;;;;23.95;30.20;99542.34;5058105;28;20059;-77
2021/07/07 07:04:14;;;;;;;9.00;2.70;;;;;;;23.84;30.50;99536.66;5075453;28;20043;-78
2021/07/07 07:06:39;;;;;;;7.93;2.33;;;;;;;23.89;30.31;99531.44;5058472;28;20043;-78
2021/07/07 07:09:05;;;;;;;6.72;2.08;;;;;;;23.92;29.58;99531.00;5093143;28;20079;-79
2021/07/07 07:11:31;;;;;;;24.60;2.45;;;;;;;23.60;29.77;99522.44;5093086;28;20093;-77
2021/07/07 07:13:57;;;;;;;7.72;2.00;;;;;;;23.60;29.59;99529.78;5074680;28;20055;-79
2021/07/07 07:16:25;;;;;;;3.70;1.92;;;;;;;23.89;29.39;99518.63;5093580;28;20453;-78
2021/07/07 07:18:51;;;;;;;5.43;2.10;;;;;;;24.04;29.73;99515.72;5058858;28;20063;-77
2021/07/07 07:21:17;;;;;;;12.40;2.05;;;;;;;24.37;29.22;99524.00;5092886;28;20048;-79
2021/07/07 07:23:43;;;;;;;11.13;2.72;;;;;;;24.66;28.75;99514.56;5074862;28;20131;-79
2021/07/07 07:26:09;;;;;;;3.08;2.10;;;;;;;24.68;28.81;99523.44;5092963;28;20044;-78
2021/07/07 07:28:35;;;;;;;7.40;2.60;;;;;;;25.01;28.68;99502.56;5092818;28;20558;-78
2021/07/07 07:31:01;;;;;;;19.98;2.95;;;;;;;24.89;28.68;99508.69;5092040;28;20040;-79
2021/07/07 07:33:27;;;;;;;25.55;2.80;;;;;;;24.57;28.80;99517.75;5091459;28;20040;-78
2021/07/07 07:35:52;;;;;;;4.50;2.30;;;;;;;24.52;29.24;99517.50;5092557;28;20119;-78
2021/07/07 07:38:39;;;;;;;10.05;2.38;;;;;;;24.80;28.91;99512.69;5092335;28;20506;-78
2021/07/07 07:41:05;;;;;;;21.85;2.80;;;;;;;25.09;28.66;99510.56;5073959;28;20048;-79
2021/07/07 07:43:31;;;;;;;5.55;2.03;;;;;;;25.60;28.47;99515.31;5074298;28;20143;-77
2021/07/07 07:45:59;;;;;;;4.57;2.22;;;;;;;25.78;27.61;99510.00;5074932;28;20052;-78
2021/07/07 07:48:25;;;;;;;6.28;2.28;;;;;;;25.90;27.46;99507.41;5074954;28;20051;-78
2021/07/07 07:50:51;;;;;;;8.68;2.40;;;;;;;26.02;27.06;99515.78;5092686;28;20157;-78
2021/07/07 07:53:17;;;;;;;9.70;2.38;;;;;;;25.43;27.72;99515.78;5074545;28;20046;-79
2021/07/07 07:55:43;;;;;;;3.92;2.10;;;;;;;25.47;27.56;99515.38;5092493;28;20040;-80
2021/07/07 07:58:09;;;;;;;7.05;2.58;;;;;;;25.68;27.84;99504.09;5058003;28;20494;-78
2021/07/07 08:00:35;;;;;;;4.97;2.40;;;;;;;26.11;27.61;99506.25;5092323;28;20101;-78
2021/07/07 08:03:01;;;;;;;6.50;2.75;;;;;;;26.75;27.07;99502.44;5090684;28;20508;-78
2021/07/07 08:05:27;;;;;;;9.13;2.58;;;;;;;27.01;27.16;99506.03;5059443;28;20411;-79
2021/07/07 08:07:54;;;;;;;7.43;2.50;;;;;;;27.01;26.66;99506.03;5101138;28;20139;-78
2021/07/07 08:10:21;;;;;;;5.57;2.53;;;;;;;27.29;26.25;99509.13;5070119;28;20101;-80
2021/07/07 08:12:50;;;;;;;6.10;2.78;;;;;;;27.66;25.66;99500.06;5044851;28;20176;-78
2021/07/07 08:15:16;;;;;;;6.28;2.40;;;;;;;27.40;25.55;99512.19;5077527;28;20438;-77
2021/07/07 08:17:42;;;;;;;3.33;2.30;;;;;;;27.85;25.47;99490.75;5061623;28;20046;-77
2021/07/07 08:20:10;;;;;;;6.45;2.33;;;;;;;28.08;25.19;99498.25;5096090;28;20054;-76
2021/07/07 08:22:36;;;;;;;5.77;3.00;;;;;;;28.29;25.17;99503.22;5061853;28;20151;-77
2021/07/07 08:25:04;;;;;;;8.77;2.70;;;;;;;28.29;24.94;99500.50;5095766;28;20076;-77
2021/07/07 08:27:30;;;;;;;6.07;2.45;;;;;;;28.12;24.81;99499.47;5078010;28;20040;-76
2021/07/07 08:29:56;;;;;;;8.45;2.80;;;;;;;27.30;25.39;99510.78;5077815;28;20051;-78
2021/07/07 08:32:21;;;;;;;6.72;2.53;;;;;;;26.51;26.69;99511.50;5044690;28;20051;-78
2021/07/07 08:34:47;;;;;;;7.07;2.50;;;;;;;26.66;26.70;99525.72;5077684;28;20082;-78
2021/07/07 08:37:14;;;;;;;6.82;2.88;;;;;;;26.91;26.62;99519.41;5096077;28;20513;-79
2021/07/07 08:39:41;;;;;;;5.15;2.20;;;;;;;26.95;26.16;99512.41;5079874;28;20042;-77
2021/07/07 08:42:07;;;;;;;8.25;3.03;;;;;;;26.50;26.38;99520.78;5116059;28;20100;-78
2021/07/07 08:44:33;;;;;;;9.00;2.55;;;;;;;26.65;26.63;99513.06;5115998;28;20134;-79
2021/07/07 08:46:59;;;;;;;6.07;2.25;;;;;;;26.92;26.47;99508.19;5116455;28;20473;-79
2021/07/07 08:49:24;;;;;;;6.60;2.30;;;;;;;26.94;25.98;99494.28;5081211;28;20050;-77
2021/07/07 08:51:50;;;;;;;5.43;2.20;;;;;;;27.04;26.01;99513.78;5116075;28;20035;-79
2021/07/07 08:54:18;;;;;;;13.93;2.38;;;;;;;27.18;25.92;99517.28;5115899;28;20139;-77
2021/07/07 08:56:45;;;;;;;5.55;2.30;;;;;;;27.35;25.79;99519.19;5064552;28;20100;-77
2021/07/07 08:59:11;;;;;;;6.75;2.30;;;;;;;28.15;25.69;99507.25;5081200;28;20055;-83
2021/07/07 09:02:05;;;;;;;9.75;2.65;;;;;;;28.96;24.74;99502.16;5087961;28;20050;-84
2021/07/07 09:04:33;;;;;;;8.25;2.50;;;;;;;29.58;24.45;99505.28;5119060;28;20040;-85
2021/07/07 09:07:24;;;;;;;9.88;2.20;;;;;;;30.11;23.28;99512.44;5067806;28;20119;-85
2021/07/07 09:09:52;;;;;;;7.35;2.50;;;;;;;29.97;22.04;99497.25;5092079;28;20174;-82
2021/07/07 09:12:29;;;;;;;7.82;2.28;;;;;;;29.82;23.05;99510.72;5061493;28;20040;-88
2021/07/07 09:15:08;;;;;;;18.05;2.75;;;;;;;29.51;22.87;99510.06;5061425;28;20063;-89
2021/07/07 09:17:39;;;;;;;9.15;2.15;;;;;;;28.27;24.14;99510.88;5063428;28;20046;-90
2021/07/07 09:20:34;;;;;;;7.60;2.25;;;;;;;28.40;24.30;99514.50;5045501;28;20063;-87
2021/07/07 09:23:22;;;;;;;8.00;2.40;;;;;;;28.90;24.21;99520.47;5055298;28;20059;-87
2021/07/07 09:25:55;;;;;;;9.00;2.38;;;;;;;29.41;24.15;99513.44;5081666;28;20056;-92
2021/07/07 09:28:25;;;;;;;7.13;2.30;;;;;;;29.83;23.49;99512.44;5061718;28;20127;-83
2021/07/07 09:30:52;;;;;;;8.35;2.20;;;;;;;30.08;23.42;99509.31;5086367;27;20086;-90
2021/07/07 09:33:18;;;;;;;2.75;2.08;;;;;;;30.28;23.35;99500.63;5102164;27;20095;-83
2021/07/07 09:35:45;;;;;;;6.03;2.15;;;;;;;30.81;22.12;99507.66;5105606;27;20043;-90
2021/07/07 09:38:10;;;;;;;4.00;1.90;;;;;;;31.41;21.43;99506.94;5128824;27;20032;-90
2021/07/07 09:40:42;;;;;;;4.38;1.90;;;;;;;31.93;21.38;99500.97;5088397;28;20097;-87
2021/07/07 09:43:09;;;;;;;8.25;2.17;;;;;;;31.46;20.84;99515.28;5079657;28;20387;-89
2021/07/07 09:45:41;;;;;;;6.35;2.33;;;;;;;31.45;21.30;99497.06;5079968;28;20051;-86
2021/07/07 09:48:10;;;;;;;8.25;2.25;;;;;;;30.76;21.55;99499.28;5081534;28;20039;-85
2021/07/07 09:50:36;;;;;;;7.68;2.28;;;;;;;30.31;22.09;99509.22;5081089;28;20043;-83
2021/07/07 09:53:02;;;;;;;7.38;2.30;;;;;;;30.23;23.16;99510.47;5096747;28;20047;-86
2021/07/07 09:55:28;;;;;;;8.20;2.13;;;;;;;30.98;22.42;99511.22;5096599;28;20051;-85
2021/07/07 09:57:55;;;;;;;4.40;2.15;;;;;;;31.51;21.05;99518.09;5063028;28;20122;-84
2021/07/07 10:00:23;;;;;;;5.45;1.95;;;;;;;31.55;21.16;99515.66;5079220;28;20131;-83
2021/07/07 10:02:53;;;;;;;3.90;1.85;;;;;;;32.14;21.48;99497.34;5095544;28;20444;-87
2021/07/07 10:05:20;;;;;;;8.50;1.92;;;;;;;32.76;20.59;99495.16;5078753;28;20067;-82
2021/07/07 10:07:46;;;;;;;10.73;1.85;;;;;;;33.13;19.96;99493.25;5096232;28;20047;-89
2021/07/07 10:10:14;;;;;;;7.82;2.20;;;;;;;33.29;20.53;99501.69;5096234;28;20124;-90
2021/07/07 10:12:44;;;;;;;5.00;2.03;;;;;;;33.41;19.21;99502.31;5062172;28;20067;-86
2021/07/07 10:15:14;;;;;;;8.30;2.40;;;;;;;33.10;18.45;99496.59;5092058;28;20415;-84
2021/07/07 10:17:41;;;;;;;10.48;2.50;;;;;;;32.76;19.86;99495.16;5092838;28;20040;-90
2021/07/07 10:20:09;;;;;;;14.52;3.55;;;;;;;32.85;19.28;99501.91;5094614;28;20131;-85
2021/07/07 10:22:36;;;;;;;10.95;2.50;;;;;;;33.58;19.35;99497.41;5092087;28;20544;-85
2021/07/07 10:25:05;;;;;;;6.53;2.58;;;;;;;34.51;17.98;99493.00;5092534;28;20610;-84
2021/07/07 10:27:31;;;;;;;11.52;2.53;;;;;;;34.72;17.10;99489.13;5075300;28;20036;-85
2021/07/07 10:29:57;;;;;;;8.70;2.28;;;;;;;34.76;17.91;99483.84;5087319;28;20079;-85
2021/07/07 10:32:28;;;;;;;8.77;2.35;;;;;;;34.86;17.84;99488.56;5088504;28;20477;-87
2021/07/07 10:34:54;;;;;;;14.98;2.42;;;;;;;35.38;16.96;99491.00;5074336;28;20105;-85
2021/07/07 10:37:21;;;;;;;13.63;2.22;;;;;;;35.76;16.74;99483.09;5055993;28;20048;-84
2021/07/07 10:39:48;;;;;;;6.50;2.20;;;;;;;35.59;16.47;99485.41;5055637;28;20083;-85
2021/07/07 10:42:15;;;;;;;11.25;2.97;;;;;;;35.85;16.12;99494.47;5071933;28;20095;-85
2021/07/07 10:44:42;;;;;;;14.70;2.87;;;;;;;34.54;16.53;99476.63;5072350;28;20419;-85
2021/07/07 10:47:11;;;;;;;8.60;2.50;;;;;;;34.66;17.61;99483.84;5078916;28;20550;-86
2021/07/07 10:49:52;;;;;;;;;;;;;;;35.27;16.84;99497.69;5059601;28;20089;-84
2021/07/07 10:52:43;;;;;;;10.13;2.60;;;;;;;35.62;16.78;99495.94;5093741;28;19969;-84
2021/07/07 10:55:11;;;;;;;12.73;2.33;;;;;;;36.47;15.98;99481.88;5060284;28;20153;-85
2021/07/07 10:57:39;;;;;;;6.10;2.42;;;;;;;37.04;15.79;99465.50;5092466;28;20093;-83
2021/07/07 11:00:07;;;;;;;9.93;2.40;;;;;;;36.81;15.79;99467.94;5093251;28;20130;-88
2021/07/07 11:02:33;;;;;;;;;;;;;;;36.95;15.38;99471.72;5076209;28;20044;-85
2021/07/07 11:05:03;;;;;;;6.88;2.10;;;;;;;36.92;15.40;99471.44;5092928;28;20495;-85
2021/07/07 11:07:32;;;;;;;5.72;2.17;;;;;;;36.34;15.94;99474.16;5065497;28;20048;-84
2021/07/07 11:10:14;;;;;;;3.83;2.10;;;;;;;37.15;15.27;99467.06;5073171;28;20040;-85
2021/07/07 11:12:40;;;;;;;6.05;1.92;;;;;;;37.54;14.53;99460.50;5055252;28;20040;-84
2021/07/07 11:15:09;;;;;;;5.90;2.00;;;;;;;38.20;14.89;99459.63;5071056;28;20190;-85
2021/07/07 11:17:49;;;;;;;7.82;2.30;;;;;;;38.80;14.43;99457.00;5071930;28;20040;-85
2021/07/07 11:20:15;;;;;;;6.22;2.10;;;;;;;38.36;14.23;99458.25;5073197;28;20098;-86
2021/07/07 11:22:45;;;;;;;4.53;2.33;;;;;;;38.52;14.47;99463.63;5083405;28;20043;-87
2021/07/07 11:25:12;;;;;;;3.33;1.83;;;;;;;38.93;13.73;99463.78;5032357;28;20052;-87
2021/07/07 11:27:39;;;;;;;6.28;1.85;;;;;;;39.56;13.67;99462.25;5091804;28;20040;-87
2021/07/07 11:30:15;;;;;;;11.13;2.22;;;;;;;39.14;13.17;99461.41;5083680;28;20036;-86
2021/07/07 11:32:50;;;;;;;7.63;2.30;;;;;;;38.18;14.29;99445.16;5084611;28;20501;-87